createdAt,value
2023-05-03T00:02:28.608Z,10.85
2023-05-03T00:04:56.106Z,10.88
2023-05-03T00:07:23.215Z,10.81
2023-05-03T00:09:50.365Z,10.58
2023-05-03T00:12:17.396Z,10.70
2023-05-03T00:14:45.897Z,10.44
2023-05-03T00:17:13.307Z,10.84
2023-05-03T00:19:40.733Z,10.77
2023-05-03T00:22:08.186Z,10.35
2023-05-03T00:24:35.623Z,10.66
2023-05-03T00:27:04.349Z,10.23
2023-05-03T00:29:31.310Z,10.20
2023-05-03T00:31:58.295Z,10.32
2023-05-03T00:34:25.567Z,9.88
2023-05-03T00:36:52.888Z,9.91
2023-05-03T00:39:19.744Z,10.11
2023-05-03T00:41:46.659Z,9.77
2023-05-03T00:44:13.853Z,10.34
2023-05-03T00:46:45.475Z,10.37
2023-05-03T00:49:12.837Z,9.73
2023-05-03T00:51:42.157Z,10.21
2023-05-03T00:54:11.005Z,9.93
2023-05-03T00:56:50.444Z,9.25
2023-05-03T00:59:19.066Z,10.16
2023-05-03T01:01:53.487Z,10.23
2023-05-03T01:04:22.154Z,10.18
2023-05-03T01:07:18.303Z,10.21
2023-05-03T01:10:05.015Z,10.16
2023-05-03T01:12:44.357Z,9.35
2023-05-03T01:15:26.307Z,10.17
2023-05-03T01:18:07.983Z,10.09
2023-05-03T01:20:38.587Z,10.31
2023-05-03T01:23:18.980Z,9.92
2023-05-03T01:25:45.887Z,10.41
2023-05-03T01:28:12.860Z,10.41
2023-05-03T01:30:40.793Z,9.80
2023-05-03T01:33:23.019Z,10.11
2023-05-03T01:36:12.155Z,9.65
2023-05-03T01:38:39.810Z,9.89
2023-05-03T01:41:11.215Z,9.61
2023-05-03T01:43:39.705Z,9.75
2023-05-03T01:46:07.632Z,9.59
2023-05-03T01:48:34.684Z,9.52
2023-05-03T01:51:02.711Z,9.72
2023-05-03T01:53:29.646Z,9.77
2023-05-03T01:55:56.620Z,9.10
2023-05-03T01:58:23.592Z,9.75
2023-05-03T02:00:50.606Z,9.16
2023-05-03T02:03:18.013Z,9.26
2023-05-03T02:05:46.404Z,9.60
2023-05-03T02:08:13.423Z,9.43
2023-05-03T02:10:40.507Z,9.34
2023-05-03T02:13:07.525Z,8.89
2023-05-03T02:15:34.642Z,9.68
2023-05-03T02:18:03.318Z,9.33
2023-05-03T02:20:35.512Z,9.74
2023-05-03T02:23:02.562Z,9.68
2023-05-03T02:25:29.894Z,9.67
2023-05-03T02:27:56.915Z,8.59
2023-05-03T02:30:24.703Z,9.13
2023-05-03T02:32:51.704Z,9.32
2023-05-03T02:35:19.751Z,9.69
2023-05-03T02:37:46.699Z,9.61
2023-05-03T02:40:14.116Z,9.25
2023-05-03T02:42:44.031Z,9.47
2023-05-03T02:45:11.521Z,9.60
2023-05-03T02:47:39.377Z,9.71
2023-05-03T02:50:07.402Z,9.61
2023-05-03T02:52:37.658Z,9.33
2023-05-03T02:55:05.815Z,9.81
2023-05-03T02:57:33.059Z,9.62
2023-05-03T03:00:00.316Z,9.32
2023-05-03T03:02:27.569Z,9.74
2023-05-03T03:04:55.029Z,9.68
2023-05-03T03:07:23.102Z,9.55
2023-05-03T03:09:53.580Z,9.64
2023-05-03T03:12:21.335Z,9.48
2023-05-03T03:14:48.418Z,8.97
2023-05-03T03:17:15.454Z,9.33
2023-05-03T03:19:42.394Z,9.35
2023-05-03T03:22:09.510Z,9.36
2023-05-03T03:24:36.973Z,8.97
2023-05-03T03:27:04.449Z,9.35
2023-05-03T03:29:33.267Z,9.43
2023-05-03T03:32:01.392Z,9.46
2023-05-03T03:34:28.398Z,7.87
2023-05-03T03:36:55.562Z,7.61
2023-05-03T03:39:22.625Z,8.92
2023-05-03T03:41:49.720Z,8.76
2023-05-03T03:44:16.827Z,8.46
2023-05-03T03:46:44.394Z,8.41
2023-05-03T03:49:11.775Z,8.72
2023-05-03T03:51:39.939Z,8.47
2023-05-03T03:54:07.003Z,8.50
2023-05-03T03:56:37.774Z,8.07
2023-05-03T03:59:05.266Z,8.33
2023-05-03T04:01:32.530Z,8.18
2023-05-03T04:03:59.624Z,7.86
2023-05-03T04:06:27.245Z,8.42
2023-05-03T04:08:56.114Z,7.54
2023-05-03T04:11:23.962Z,8.20
2023-05-03T04:13:55.838Z,7.51
2023-05-03T04:16:22.982Z,7.92
2023-05-03T04:18:50.290Z,7.75
2023-05-03T04:21:17.432Z,7.79
2023-05-03T04:23:44.612Z,7.14
2023-05-03T04:26:27.505Z,7.99
2023-05-03T04:28:59.944Z,7.81
2023-05-03T04:31:27.105Z,7.87
2023-05-03T04:33:55.374Z,8.09
2023-05-03T04:36:26.011Z,8.20
2023-05-03T04:38:54.700Z,7.98
2023-05-03T04:41:24.567Z,7.99
2023-05-03T04:43:52.397Z,7.05
2023-05-03T04:46:20.706Z,8.16
2023-05-03T04:48:48.456Z,8.24
2023-05-03T04:51:15.588Z,8.68
2023-05-03T04:53:43.844Z,8.81
2023-05-03T04:56:16.262Z,8.06
2023-05-03T04:58:44.706Z,8.69
2023-05-03T05:01:14.617Z,7.83
2023-05-03T05:03:41.904Z,8.67
2023-05-03T05:06:15.709Z,7.18
2023-05-03T05:08:42.881Z,9.08
2023-05-03T05:11:13.904Z,8.22
2023-05-03T05:13:41.020Z,7.97
2023-05-03T05:16:08.260Z,8.92
2023-05-03T05:18:36.358Z,7.65
2023-05-03T05:21:06.278Z,8.75
2023-05-03T05:23:35.359Z,9.20
2023-05-03T05:26:03.035Z,9.07
2023-05-03T05:28:37.740Z,8.85
2023-05-03T05:31:05.049Z,8.97
2023-05-03T05:33:32.447Z,8.86
2023-05-03T05:36:00.174Z,9.28
2023-05-03T05:38:28.047Z,8.85
2023-05-03T05:40:57.901Z,9.42
2023-05-03T05:43:25.166Z,9.14
2023-05-03T05:45:52.219Z,9.31
2023-05-03T05:48:20.439Z,9.67
2023-05-03T05:50:48.967Z,9.10
2023-05-03T05:53:16.296Z,8.53
2023-05-03T05:55:53.639Z,9.70
2023-05-03T05:58:21.125Z,9.62
2023-05-03T06:00:52.199Z,8.87
2023-05-03T06:03:19.331Z,8.20
2023-05-03T06:05:49.469Z,10.11
2023-05-03T06:08:16.434Z,9.11
2023-05-03T06:10:44.093Z,9.40
2023-05-03T06:13:11.418Z,9.48
2023-05-03T06:15:38.487Z,10.05
2023-05-03T06:18:05.638Z,9.67
2023-05-03T06:20:32.984Z,8.94
2023-05-03T06:23:00.356Z,8.77
2023-05-03T06:25:27.616Z,8.50
2023-05-03T06:27:54.720Z,10.12
2023-05-03T06:30:25.993Z,9.50
2023-05-03T06:32:53.644Z,9.33
2023-05-03T06:35:22.143Z,9.15
2023-05-03T06:37:50.148Z,9.26
2023-05-03T06:40:17.162Z,10.54
2023-05-03T06:42:45.404Z,10.48
2023-05-03T06:45:18.778Z,9.41
2023-05-03T06:47:46.259Z,10.61
2023-05-03T06:50:14.134Z,9.76
2023-05-03T06:52:41.711Z,11.20
2023-05-03T06:55:09.814Z,10.35
2023-05-03T06:57:36.912Z,11.43
2023-05-03T07:00:07.431Z,10.56
2023-05-03T07:02:34.981Z,10.82
2023-05-03T07:05:02.157Z,11.04
2023-05-03T07:07:29.584Z,11.27
2023-05-03T07:09:56.781Z,11.09
2023-05-03T07:12:27.835Z,11.32
2023-05-03T07:14:55.715Z,11.58
2023-05-03T07:17:23.417Z,11.23
2023-05-03T07:19:51.245Z,11.57
2023-05-03T07:22:21.473Z,11.05
2023-05-03T07:24:48.640Z,8.97
2023-05-03T07:27:15.730Z,11.39
2023-05-03T07:29:42.732Z,11.32
2023-05-03T07:32:09.942Z,10.99
2023-05-03T07:34:37.117Z,11.42
2023-05-03T07:37:04.243Z,10.45
2023-05-03T07:39:31.234Z,11.46
2023-05-03T07:41:58.363Z,9.77
2023-05-03T07:44:25.605Z,10.20
2023-05-03T07:46:52.608Z,9.98
2023-05-03T07:49:19.831Z,9.13
2023-05-03T07:51:46.819Z,10.97
2023-05-03T07:54:13.816Z,11.45
2023-05-03T07:56:41.748Z,11.23
2023-05-03T07:59:10.450Z,10.36
2023-05-03T08:01:38.352Z,11.37
2023-05-03T08:04:06.018Z,11.65
2023-05-03T08:06:35.730Z,11.53
2023-05-03T08:09:04.901Z,11.52
2023-05-03T08:11:32.070Z,11.25
2023-05-03T08:13:59.144Z,12.03
2023-05-03T08:16:26.356Z,11.32
2023-05-03T08:18:53.526Z,11.87
2023-05-03T08:21:22.270Z,11.56
2023-05-03T08:23:49.344Z,10.52
2023-05-03T08:26:16.418Z,11.78
2023-05-03T08:28:43.512Z,12.01
2023-05-03T08:31:10.659Z,11.40
2023-05-03T08:33:37.800Z,11.97
2023-05-03T08:36:05.290Z,11.79
2023-05-03T08:38:33.699Z,10.69
2023-05-03T08:41:18.785Z,10.41
2023-05-03T08:43:48.690Z,9.59
2023-05-03T08:46:16.260Z,10.25
2023-05-03T08:48:45.152Z,10.36
2023-05-03T08:51:12.550Z,9.99
2023-05-03T08:53:39.931Z,11.56
2023-05-03T08:56:08.619Z,11.18
2023-05-03T08:58:44.375Z,12.23
2023-05-03T09:01:11.526Z,11.72
2023-05-03T09:03:39.950Z,12.44
2023-05-03T09:06:21.084Z,10.75
2023-05-03T09:08:48.361Z,11.25
2023-05-03T09:11:26.861Z,12.75
2023-05-03T09:13:54.597Z,12.45
2023-05-03T09:16:42.717Z,13.00
2023-05-03T09:19:12.503Z,12.94
2023-05-03T09:21:41.330Z,12.83
2023-05-03T09:24:15.797Z,13.15
2023-05-03T09:26:44.095Z,12.80
2023-05-03T09:29:11.783Z,12.64
2023-05-03T09:31:59.654Z,12.78
2023-05-03T09:34:26.788Z,12.46
2023-05-03T09:36:54.091Z,12.33
2023-05-03T09:39:21.190Z,12.59
2023-05-03T09:41:48.209Z,12.65
2023-05-03T09:44:15.479Z,13.08
2023-05-03T09:47:03.034Z,12.37
2023-05-03T09:49:32.664Z,13.10
2023-05-03T09:52:01.396Z,12.92
2023-05-03T09:54:31.917Z,12.95
2023-05-03T09:57:02.525Z,13.26
2023-05-03T09:59:29.640Z,13.50
2023-05-03T10:02:01.720Z,13.17
2023-05-03T10:04:29.973Z,13.79
2023-05-03T10:07:01.492Z,13.79
2023-05-03T10:09:40.651Z,13.81
2023-05-03T10:12:17.619Z,13.81
2023-05-03T10:14:47.627Z,13.81
2023-05-03T10:17:46.126Z,12.68
2023-05-03T10:20:40.299Z,13.71
2023-05-03T10:23:12.993Z,13.47
2023-05-03T10:26:05.202Z,13.68
2023-05-03T10:28:33.801Z,13.57
2023-05-03T10:31:01.079Z,13.37
2023-05-03T10:33:33.967Z,13.81
2023-05-03T10:36:10.921Z,13.17
2023-05-03T10:38:38.304Z,12.88
2023-05-03T10:41:07.318Z,12.82
2023-05-03T10:43:34.477Z,13.79
2023-05-03T10:46:06.865Z,13.88
2023-05-03T10:48:35.066Z,12.45
2023-05-03T10:51:34.126Z,12.12
2023-05-03T10:54:01.188Z,13.27
2023-05-03T10:56:28.445Z,12.54
2023-05-03T10:58:57.306Z,13.43
2023-05-03T11:01:27.257Z,12.72
2023-05-03T11:04:22.163Z,13.12
2023-05-03T11:06:52.231Z,12.46
2023-05-03T11:09:19.407Z,13.22
2023-05-03T11:11:46.556Z,11.29
2023-05-03T11:14:14.157Z,12.21
2023-05-03T11:16:48.286Z,12.43
2023-05-03T11:19:16.168Z,12.26
2023-05-03T11:21:44.392Z,13.05
2023-05-03T11:24:17.474Z,12.54
2023-05-03T11:26:44.538Z,13.15
2023-05-03T11:29:13.245Z,13.18
2023-05-03T11:31:43.317Z,13.28
2023-05-03T11:34:12.520Z,13.33
2023-05-03T11:36:41.018Z,12.78
2023-05-03T11:39:09.006Z,13.06
2023-05-03T11:41:36.224Z,12.88
2023-05-03T11:44:16.067Z,13.23
2023-05-03T11:46:46.340Z,12.88
2023-05-03T11:49:18.866Z,12.69
2023-05-03T11:51:49.148Z,13.10
2023-05-03T11:54:27.278Z,13.12
2023-05-03T11:56:59.429Z,12.96
2023-05-03T11:59:40.177Z,12.77
2023-05-03T12:02:10.445Z,12.81
2023-05-03T12:04:43.239Z,12.82
2023-05-03T12:07:13.622Z,13.01
2023-05-03T12:09:43.942Z,13.11
2023-05-03T12:12:25.509Z,13.21
2023-05-03T12:14:59.556Z,13.08
2023-05-03T12:17:44.340Z,13.00
2023-05-03T12:22:58.082Z,12.96
2023-05-03T12:25:28.030Z,12.82
2023-05-03T12:30:33.596Z,12.30
2023-05-03T12:33:04.134Z,12.68
2023-05-03T12:35:34.241Z,12.78
2023-05-03T12:38:09.075Z,12.65
2023-05-03T12:40:36.837Z,12.64
2023-05-03T12:43:04.352Z,12.82
2023-05-03T12:45:34.563Z,12.62
2023-05-03T12:48:03.101Z,12.61
2023-05-03T12:50:31.944Z,12.40
2023-05-03T12:53:02.746Z,11.79
2023-05-03T12:55:35.468Z,12.89
2023-05-03T12:58:39.573Z,12.49
2023-05-03T13:05:52.876Z,12.34
2023-05-03T13:08:21.705Z,12.48
2023-05-03T13:10:53.207Z,12.31
2023-05-03T13:13:21.256Z,12.66
2023-05-03T13:15:49.681Z,12.40
2023-05-03T13:18:16.733Z,11.07
2023-05-03T13:20:44.145Z,12.27
2023-05-03T13:23:11.973Z,12.52
2023-05-03T13:25:40.517Z,12.00
2023-05-03T13:28:07.551Z,12.33
2023-05-03T13:30:34.745Z,12.42
2023-05-03T13:33:01.802Z,12.18
2023-05-03T13:35:28.805Z,12.18
2023-05-03T13:37:55.795Z,11.90
2023-05-03T13:40:24.808Z,12.13
2023-05-03T13:42:51.815Z,12.29
2023-05-03T13:45:19.892Z,12.44
2023-05-03T13:48:14.318Z,12.39
2023-05-03T13:50:34.513Z,12.45
2023-05-03T13:53:01.921Z,12.00
2023-05-03T13:55:28.855Z,11.79
2023-05-03T13:57:56.356Z,12.09
2023-05-03T14:00:23.537Z,11.76
2023-05-03T14:02:52.079Z,11.77
2023-05-03T14:05:20.003Z,12.07
2023-05-03T14:07:47.003Z,11.99
2023-05-03T14:10:16.925Z,12.56
2023-05-03T14:12:45.105Z,12.28
2023-05-03T14:15:12.296Z,12.47
2023-05-03T14:17:39.438Z,12.39
2023-05-03T14:20:08.632Z,12.41
2023-05-03T14:22:36.005Z,12.62
2023-05-03T14:25:03.048Z,12.26
2023-05-03T14:27:31.016Z,12.63
2023-05-03T14:29:58.062Z,12.73
2023-05-03T14:32:25.409Z,12.16
2023-05-03T14:34:52.752Z,12.66
2023-05-03T14:37:19.869Z,12.52
2023-05-03T14:39:47.035Z,12.76
2023-05-03T14:42:14.152Z,12.10
2023-05-03T14:44:41.368Z,12.43
2023-05-03T14:47:08.480Z,12.96
2023-05-03T14:49:40.626Z,13.04
2023-05-03T14:52:08.479Z,12.64
2023-05-03T14:54:36.710Z,13.06
2023-05-03T14:57:04.782Z,13.10
2023-05-03T14:59:33.476Z,13.06
2023-05-03T15:02:01.190Z,12.75
2023-05-03T15:04:29.348Z,12.62
2023-05-03T15:07:00.956Z,12.68
2023-05-03T15:09:28.527Z,12.57
2023-05-03T15:11:55.492Z,12.31
2023-05-03T15:14:22.579Z,13.04
2023-05-03T15:16:49.705Z,12.76
2023-05-03T15:19:16.788Z,12.61
2023-05-03T15:21:47.853Z,12.89
2023-05-03T15:24:16.641Z,12.38
2023-05-03T15:26:43.944Z,12.70
2023-05-03T15:29:11.266Z,12.13
2023-05-03T15:31:38.694Z,12.25
2023-05-03T15:34:06.621Z,12.57
2023-05-03T15:36:34.189Z,12.01
2023-05-03T15:39:01.192Z,12.09
2023-05-03T15:41:28.442Z,11.92
2023-05-03T15:43:56.225Z,11.70
2023-05-03T15:46:23.496Z,11.87
2023-05-03T15:48:55.129Z,11.79
2023-05-03T15:51:22.265Z,12.07
2023-05-03T15:53:49.896Z,11.89
2023-05-03T15:56:17.043Z,11.57
2023-05-03T15:58:44.116Z,11.68
2023-05-03T16:01:11.038Z,11.86
2023-05-03T16:03:38.113Z,11.81
2023-05-03T16:06:06.149Z,11.29
2023-05-03T16:08:33.132Z,11.37
2023-05-03T16:11:00.346Z,11.35
2023-05-03T16:13:27.958Z,11.65
2023-05-03T16:15:58.223Z,11.78
2023-05-03T16:18:27.039Z,11.51
2023-05-03T16:20:55.667Z,11.28
2023-05-03T16:23:22.653Z,11.62
2023-05-03T16:25:49.580Z,11.66
2023-05-03T16:28:19.216Z,11.26
2023-05-03T16:30:46.416Z,11.27
2023-05-03T16:33:13.461Z,11.53
2023-05-03T16:35:42.838Z,11.20
2023-05-03T16:38:10.059Z,11.40
2023-05-03T16:40:40.223Z,11.32
2023-05-03T16:43:08.001Z,11.36
2023-05-03T16:45:35.077Z,10.99
2023-05-03T16:48:04.785Z,11.30
2023-05-03T16:50:33.195Z,11.24
2023-05-03T16:53:00.291Z,10.82
2023-05-03T16:55:27.232Z,10.77
2023-05-03T16:57:54.129Z,11.17
2023-05-03T17:00:22.012Z,11.21
2023-05-03T17:02:49.316Z,10.99
2023-05-03T17:05:16.434Z,11.04
2023-05-03T17:07:43.418Z,11.31
2023-05-03T17:10:10.767Z,11.06
2023-05-03T17:12:37.749Z,11.08
2023-05-03T17:15:05.491Z,11.52
2023-05-03T17:17:32.920Z,11.56
2023-05-03T17:20:00.019Z,10.91
2023-05-03T17:22:26.984Z,11.54
2023-05-03T17:24:55.398Z,11.00
2023-05-03T17:27:24.417Z,11.13
2023-05-03T17:29:51.787Z,11.59
2023-05-03T17:32:18.749Z,11.11
2023-05-03T17:34:46.121Z,11.23
2023-05-03T17:37:13.170Z,11.76
2023-05-03T17:39:40.334Z,11.80
2023-05-03T17:42:08.246Z,11.63
2023-05-03T17:44:35.300Z,11.36
2023-05-03T17:47:02.467Z,11.31
2023-05-03T17:49:33.166Z,10.64
2023-05-03T17:52:00.687Z,10.84
2023-05-03T17:54:30.640Z,10.23
2023-05-03T17:56:57.771Z,10.89
2023-05-03T17:59:24.857Z,11.29
2023-05-03T18:01:52.210Z,11.17
2023-05-03T18:04:19.502Z,9.91
2023-05-03T18:06:46.726Z,11.23
2023-05-03T18:09:14.023Z,11.33
2023-05-03T18:11:41.580Z,11.31
2023-05-03T18:14:08.699Z,11.31
2023-05-03T18:16:36.891Z,10.83
2023-05-03T18:19:04.563Z,11.34
2023-05-03T18:21:31.687Z,11.24
2023-05-03T18:23:58.775Z,11.16
2023-05-03T18:26:25.799Z,11.46
2023-05-03T18:28:53.727Z,10.89
2023-05-03T18:31:21.642Z,11.11
2023-05-03T18:33:49.153Z,11.16
2023-05-03T18:36:17.761Z,10.98
2023-05-03T18:38:46.896Z,11.14
2023-05-03T18:41:16.089Z,11.11
2023-05-03T18:43:47.341Z,11.47
2023-05-03T18:46:19.044Z,11.42
2023-05-03T18:48:47.868Z,10.21
2023-05-03T18:51:15.103Z,11.44
2023-05-03T18:53:43.682Z,11.38
2023-05-03T18:56:11.070Z,11.54
2023-05-03T18:58:38.382Z,11.00
2023-05-03T19:01:06.070Z,11.58
2023-05-03T19:03:33.560Z,11.11
2023-05-03T19:06:04.845Z,11.42
2023-05-03T19:08:32.302Z,11.29
2023-05-03T19:11:14.392Z,11.50
2023-05-03T19:13:42.723Z,11.48
2023-05-03T19:16:09.838Z,11.12
2023-05-03T19:18:44.543Z,10.33
2023-05-03T19:21:19.371Z,11.42
2023-05-03T19:23:46.486Z,10.93
2023-05-03T19:26:13.608Z,11.25
2023-05-03T19:28:40.588Z,10.84
2023-05-03T19:31:10.888Z,10.88
2023-05-03T19:33:38.242Z,11.29
2023-05-03T19:36:08.534Z,11.04
2023-05-03T19:38:36.578Z,10.90
2023-05-03T19:41:09.803Z,10.57
2023-05-03T19:43:36.899Z,10.91
2023-05-03T19:46:04.090Z,11.25
2023-05-03T19:48:31.203Z,10.91
2023-05-03T19:51:01.486Z,10.68
2023-05-03T19:53:28.910Z,11.02
2023-05-03T19:56:00.654Z,11.12
2023-05-03T19:58:28.391Z,11.41
2023-05-03T20:00:57.898Z,11.05
2023-05-03T20:03:24.927Z,11.43
2023-05-03T20:05:52.206Z,10.94
2023-05-03T20:08:19.741Z,10.45
2023-05-03T20:10:47.044Z,10.78
2023-05-03T20:13:14.155Z,10.94
2023-05-03T20:15:41.800Z,10.52
2023-05-03T20:18:08.783Z,10.75
2023-05-03T20:20:36.786Z,10.89
2023-05-03T20:23:07.947Z,10.97
2023-05-03T20:25:34.885Z,10.72
2023-05-03T20:28:01.849Z,10.83
2023-05-03T20:30:31.393Z,10.89
2023-05-03T20:32:59.259Z,10.48
2023-05-03T20:35:27.275Z,10.63
2023-05-03T20:37:54.296Z,10.58
2023-05-03T20:40:21.368Z,11.02
2023-05-03T20:42:48.454Z,10.76
2023-05-03T20:45:15.749Z,10.97
2023-05-03T20:47:42.781Z,10.88
2023-05-03T20:50:09.999Z,10.92
2023-05-03T20:52:37.074Z,10.35
2023-05-03T20:55:04.176Z,10.85
2023-05-03T20:57:31.571Z,10.45
2023-05-03T20:59:59.451Z,10.07
2023-05-03T21:02:26.555Z,10.77
2023-05-03T21:04:53.685Z,10.79
2023-05-03T21:07:20.800Z,10.91
2023-05-03T21:09:47.866Z,10.53
2023-05-03T21:12:14.834Z,10.47
2023-05-03T21:14:41.766Z,10.63
2023-05-03T21:17:09.982Z,10.82
2023-05-03T21:19:36.852Z,10.50
2023-05-03T21:22:03.978Z,10.86
2023-05-03T21:24:31.318Z,10.94
2023-05-03T21:26:58.978Z,10.40
2023-05-03T21:29:25.981Z,10.71
2023-05-03T21:31:53.217Z,10.49
2023-05-03T21:34:20.297Z,10.20
2023-05-03T21:36:47.287Z,10.48
2023-05-03T21:39:14.306Z,10.77
2023-05-03T21:41:41.349Z,10.55
2023-05-03T21:44:08.319Z,10.71
2023-05-03T21:46:36.315Z,10.60
2023-05-03T21:49:03.648Z,10.93
2023-05-03T21:51:32.537Z,10.32
2023-05-03T21:53:59.551Z,10.79
2023-05-03T21:56:26.854Z,10.48
2023-05-03T21:58:54.300Z,10.30
2023-05-03T22:01:21.951Z,10.56
2023-05-03T22:03:53.134Z,10.64
2023-05-03T22:06:20.330Z,10.84
2023-05-03T22:08:47.875Z,10.96
2023-05-03T22:11:14.960Z,10.97
2023-05-03T22:14:02.977Z,10.84
2023-05-03T22:16:33.231Z,10.50
2023-05-03T22:19:00.420Z,10.91
2023-05-03T22:21:27.615Z,10.91
2023-05-03T22:23:54.556Z,10.79
2023-05-03T22:26:21.622Z,11.02
2023-05-03T22:28:50.459Z,10.42
2023-05-03T22:31:18.171Z,10.58
2023-05-03T22:33:45.664Z,10.97
2023-05-03T22:36:13.204Z,10.08
2023-05-03T22:38:42.725Z,10.59
2023-05-03T22:41:11.845Z,11.00
2023-05-03T22:43:38.869Z,10.84
2023-05-03T22:46:06.287Z,10.73
2023-05-03T22:48:34.222Z,10.75
2023-05-03T22:51:01.182Z,11.07
2023-05-03T22:53:28.512Z,10.70
2023-05-03T22:55:59.188Z,10.74
2023-05-03T22:58:26.320Z,10.11
2023-05-03T23:00:53.789Z,10.60
2023-05-03T23:03:22.151Z,10.26
2023-05-03T23:05:51.528Z,10.54
2023-05-03T23:08:19.000Z,10.43
2023-05-03T23:10:45.955Z,10.41
2023-05-03T23:13:13.513Z,10.58
2023-05-03T23:15:44.813Z,10.03
2023-05-03T23:18:11.765Z,10.39
2023-05-03T23:20:38.650Z,10.15
2023-05-03T23:23:05.755Z,10.42
2023-05-03T23:25:32.806Z,10.50
2023-05-03T23:27:59.706Z,10.14
2023-05-03T23:30:27.269Z,9.90
2023-05-03T23:32:54.770Z,9.87
2023-05-03T23:35:22.181Z,10.05
2023-05-03T23:37:49.201Z,10.29
2023-05-03T23:40:16.313Z,9.98
2023-05-03T23:42:43.876Z,10.05
2023-05-03T23:45:11.336Z,9.53
2023-05-03T23:47:38.371Z,10.20
2023-05-03T23:50:06.280Z,9.57
2023-05-03T23:52:33.441Z,10.10
2023-05-03T23:55:00.469Z,10.15
2023-05-03T23:57:27.417Z,9.86
2023-05-03T23:59:54.470Z,9.78
